Terminal Aerodrome Forecast
Issued by NWS

Home | Current Version | Previous Version | Text Only | Print | Product List | Glossary On
Versions: 1 2 3 4 5 6 7 8 9 10 11 12 13 14 15 16
000
FTUS43 KGRB 302342
TAFMTW
TAF
KMTW 302342Z 0100/0124 04012G24KT P6SM OVC006
     FM010200 04017G26KT 5SM -SHRA OVC005
     FM010600 06015G24KT 5SM -SHRA OVC004
      TEMPO 0108/0110 2SM TSRA OVC002CB
     FM011000 07005KT 1SM -SHRA BR OVC003
     FM011300 19009G14KT 6SM -SHRA OVC006
     FM011600 19014G20KT P6SM SCT020 BKN040
      TEMPO 0119/0123 3SM -SHRA BR BKN020=

USA.gov is the U.S. government's official web portal to all federal, state and local government web resources and services.